createdAt,value
2023-06-29T00:04:22.190Z,5.75
2023-06-29T00:09:24.446Z,6.93
2023-06-29T00:14:26.519Z,3.50
2023-06-29T00:19:28.684Z,3.78
2023-06-29T00:24:30.870Z,3.13
2023-06-29T00:29:32.975Z,3.60
2023-06-29T00:34:35.143Z,3.83
2023-06-29T00:39:37.269Z,2.88
2023-06-29T00:44:39.490Z,2.47
2023-06-29T00:49:42.044Z,2.63
2023-06-29T00:54:44.765Z,3.55
2023-06-29T00:59:47.287Z,3.30
2023-06-29T01:04:49.476Z,2.00
2023-06-29T01:09:57.308Z,1.83
2023-06-29T01:15:00.757Z,3.55
2023-06-29T01:20:03.681Z,1.40
2023-06-29T01:25:06.406Z,3.35
2023-06-29T01:30:11.100Z,2.72
2023-06-29T01:35:13.831Z,1.75
2023-06-29T01:40:20.919Z,2.00
2023-06-29T01:45:24.612Z,3.33
2023-06-29T01:50:30.483Z,1.75
2023-06-29T01:55:32.712Z,1.73
2023-06-29T02:00:37.065Z,2.42
2023-06-29T02:05:40.727Z,1.58
2023-06-29T02:10:42.964Z,1.92
2023-06-29T02:15:45.268Z,1.88
2023-06-29T02:20:47.610Z,1.55
2023-06-29T02:25:49.766Z,1.38
2023-06-29T02:30:51.954Z,1.77
2023-06-29T02:35:54.390Z,1.90
2023-06-29T02:40:56.667Z,1.50
2023-06-29T02:45:59.002Z,1.10
2023-06-29T02:51:04.277Z,1.95
2023-06-29T02:56:06.586Z,2.00
2023-06-29T03:01:09.681Z,3.00
2023-06-29T03:06:12.461Z,4.05
2023-06-29T03:11:14.527Z,4.13
2023-06-29T03:16:16.927Z,3.95
2023-06-29T03:21:22.149Z,3.30
2023-06-29T03:26:24.396Z,3.08
2023-06-29T03:31:26.621Z,4.18
2023-06-29T03:36:28.770Z,2.90
2023-06-29T03:41:30.895Z,3.85
2023-06-29T03:46:33.206Z,2.60
2023-06-29T03:51:35.416Z,2.70
2023-06-29T03:56:37.548Z,3.38
2023-06-29T04:01:39.680Z,3.20
2023-06-29T04:06:41.933Z,4.15
2023-06-29T04:11:44.022Z,2.25
2023-06-29T04:16:46.166Z,2.10
2023-06-29T04:21:48.387Z,4.82
2023-06-29T04:26:50.741Z,3.10
2023-06-29T04:31:55.578Z,4.45
2023-06-29T04:36:57.778Z,2.25
2023-06-29T04:42:04.093Z,2.40
2023-06-29T04:47:07.038Z,3.28
2023-06-29T04:52:11.885Z,3.00
2023-06-29T04:57:14.025Z,2.40
2023-06-29T05:02:16.149Z,2.38
2023-06-29T05:07:18.598Z,3.92
2023-06-29T05:12:20.923Z,3.63
2023-06-29T05:17:23.555Z,2.10
2023-06-29T05:22:25.790Z,2.47
2023-06-29T05:27:27.924Z,4.55
2023-06-29T05:32:30.329Z,3.25
2023-06-29T05:37:33.374Z,2.00
2023-06-29T05:42:35.462Z,2.78
2023-06-29T05:47:37.594Z,3.00
2023-06-29T05:52:39.844Z,3.30
2023-06-29T05:57:41.968Z,3.88
2023-06-29T06:02:44.098Z,2.53
2023-06-29T06:07:46.340Z,3.22
2023-06-29T06:12:48.452Z,2.58
2023-06-29T06:17:50.891Z,2.53
2023-06-29T06:22:53.149Z,3.88
2023-06-29T06:27:55.396Z,2.90
2023-06-29T06:32:57.739Z,2.85
2023-06-29T06:37:59.873Z,2.38
2023-06-29T06:43:02.000Z,2.50
2023-06-29T06:48:05.398Z,5.38
2023-06-29T06:53:07.522Z,2.50
2023-06-29T06:58:10.360Z,2.20
2023-06-29T07:03:12.742Z,1.85
2023-06-29T07:08:15.070Z,1.80
2023-06-29T07:13:17.182Z,2.65
2023-06-29T07:18:19.391Z,3.35
2023-06-29T07:28:43.766Z,1.10
2023-06-29T07:33:45.906Z,1.67
2023-06-29T07:38:48.582Z,4.88
2023-06-29T07:43:57.689Z,1.02
2023-06-29T07:54:05.065Z,0.80
2023-06-29T07:59:07.208Z,1.42
2023-06-29T08:04:09.816Z,1.55
2023-06-29T08:09:12.661Z,1.42
2023-06-29T08:14:15.401Z,1.52
2023-06-29T08:19:17.688Z,1.63
2023-06-29T08:24:19.830Z,1.10
2023-06-29T08:29:21.973Z,0.68
2023-06-29T08:34:24.094Z,1.45
2023-06-29T08:39:26.528Z,1.80
2023-06-29T08:44:28.654Z,0.93
2023-06-29T08:49:34.001Z,1.10
2023-06-29T08:54:36.436Z,2.25
2023-06-29T08:59:39.726Z,1.95
2023-06-29T09:04:41.886Z,1.05
2023-06-29T09:09:44.527Z,1.55
2023-06-29T09:14:48.842Z,0.90
2023-06-29T09:19:59.069Z,1.90
2023-06-29T09:25:10.435Z,1.10
2023-06-29T09:30:20.787Z,1.75
2023-06-29T09:35:26.226Z,0.80
2023-06-29T09:40:29.404Z,0.95
2023-06-29T09:45:32.526Z,1.08
2023-06-29T09:50:34.854Z,0.95
2023-06-29T09:55:39.317Z,1.30
2023-06-29T10:00:41.816Z,1.35
2023-06-29T10:05:44.249Z,1.13
2023-06-29T10:10:48.137Z,1.27
2023-06-29T10:15:52.994Z,1.40
2023-06-29T10:20:56.069Z,1.92
2023-06-29T10:26:00.138Z,2.60
2023-06-29T10:31:02.466Z,2.70
2023-06-29T10:36:04.929Z,4.40
2023-06-29T10:41:07.872Z,3.30
2023-06-29T10:46:10.118Z,3.42
2023-06-29T10:51:15.136Z,2.90
2023-06-29T10:56:31.392Z,2.88
2023-06-29T11:01:34.047Z,2.70
2023-06-29T11:06:36.526Z,3.28
2023-06-29T11:11:39.488Z,2.25
2023-06-29T11:16:42.044Z,2.05
2023-06-29T11:21:44.227Z,1.92
2023-06-29T11:26:47.513Z,1.80
2023-06-29T11:31:50.558Z,2.65
2023-06-29T11:37:09.039Z,3.00
2023-06-29T11:42:22.943Z,1.73
2023-06-29T11:47:33.345Z,2.15
2023-06-29T11:52:36.904Z,2.15
2023-06-29T11:57:41.344Z,1.67
2023-06-29T12:02:45.831Z,2.22
2023-06-29T12:07:48.754Z,2.42
2023-06-29T12:13:00.087Z,1.48
2023-06-29T12:18:15.509Z,1.45
2023-06-29T12:23:18.252Z,1.73
2023-06-29T12:28:20.856Z,1.40
2023-06-29T12:33:22.977Z,1.27
2023-06-29T12:38:25.318Z,2.20
2023-06-29T12:43:27.420Z,1.50
2023-06-29T12:48:29.563Z,1.80
2023-06-29T12:53:33.727Z,0.98
2023-06-29T12:58:35.890Z,2.28
2023-06-29T13:03:39.155Z,0.88
2023-06-29T13:08:41.397Z,1.25
2023-06-29T13:13:43.670Z,1.27
2023-06-29T13:18:45.855Z,0.68
2023-06-29T13:23:48.570Z,0.85
2023-06-29T13:28:50.778Z,1.10
2023-06-29T13:33:52.932Z,1.05
2023-06-29T13:38:55.121Z,1.05
2023-06-29T13:43:57.220Z,0.82
2023-06-29T13:49:00.052Z,1.02
2023-06-29T13:54:04.969Z,1.40
2023-06-29T13:59:09.582Z,1.10
2023-06-29T14:04:12.989Z,1.13
2023-06-29T14:09:15.499Z,0.73
2023-06-29T14:14:17.657Z,1.48
2023-06-29T14:19:22.092Z,1.35
2023-06-29T14:24:24.202Z,1.08
2023-06-29T14:29:27.030Z,1.23
2023-06-29T14:34:29.192Z,0.82
2023-06-29T14:39:31.791Z,1.60
2023-06-29T14:44:33.945Z,0.57
2023-06-29T14:49:36.067Z,1.63
2023-06-29T14:54:38.589Z,0.82
2023-06-29T14:59:40.820Z,0.50
2023-06-29T15:04:43.373Z,0.68
2023-06-29T15:09:45.538Z,1.02
2023-06-29T15:14:47.675Z,1.60
2023-06-29T15:19:49.754Z,0.90
2023-06-29T15:24:52.181Z,2.08
2023-06-29T15:29:54.240Z,1.77
2023-06-29T15:34:56.483Z,2.65
2023-06-29T15:39:58.727Z,0.90
2023-06-29T15:45:02.008Z,0.80
2023-06-29T15:50:05.918Z,0.90
2023-06-29T15:55:08.502Z,1.50
2023-06-29T16:00:11.199Z,1.25
2023-06-29T16:05:16.342Z,0.63
2023-06-29T16:10:18.668Z,1.75
2023-06-29T16:15:22.986Z,0.88
2023-06-29T16:20:25.395Z,1.05
2023-06-29T16:25:27.722Z,1.20
2023-06-29T16:30:36.202Z,2.03
2023-06-29T16:35:38.518Z,1.02
2023-06-29T16:40:40.616Z,0.80
2023-06-29T16:45:43.087Z,2.10
2023-06-29T16:50:45.531Z,1.35
2023-06-29T16:55:48.231Z,0.50
2023-06-29T17:00:50.623Z,1.00
2023-06-29T17:05:52.681Z,0.60
2023-06-29T17:10:57.106Z,0.95
2023-06-29T17:15:59.350Z,1.15
2023-06-29T17:21:01.711Z,1.10
2023-06-29T17:26:05.177Z,0.60
2023-06-29T17:31:07.384Z,0.88
2023-06-29T17:36:09.546Z,1.05
2023-06-29T17:41:12.663Z,1.17
2023-06-29T17:46:14.981Z,0.85
2023-06-29T17:51:18.947Z,0.65
2023-06-29T17:56:21.418Z,0.73
2023-06-29T18:01:23.758Z,0.90
2023-06-29T18:06:26.035Z,1.02
2023-06-29T18:11:28.885Z,0.88
2023-06-29T18:16:31.088Z,1.70
2023-06-29T18:21:33.726Z,0.63
2023-06-29T18:26:35.909Z,0.60
2023-06-29T18:31:38.713Z,0.85
2023-06-29T18:36:40.999Z,1.15
2023-06-29T18:41:43.242Z,1.05
2023-06-29T18:47:04.952Z,0.63
2023-06-29T18:52:07.512Z,0.75
2023-06-29T18:57:11.505Z,0.60
2023-06-29T19:02:13.763Z,0.63
2023-06-29T19:07:17.632Z,1.00
2023-06-29T19:12:19.876Z,0.75
2023-06-29T19:17:22.238Z,0.80
2023-06-29T19:22:24.379Z,0.77
2023-06-29T19:27:26.714Z,1.30
2023-06-29T19:32:28.953Z,0.60
2023-06-29T19:37:31.794Z,1.10
2023-06-29T19:42:33.968Z,0.70
2023-06-29T19:47:36.085Z,0.80
2023-06-29T19:52:38.201Z,1.52
2023-06-29T19:57:40.343Z,1.33
2023-06-29T20:02:42.499Z,1.50
2023-06-29T20:07:44.881Z,1.27
2023-06-29T20:12:47.266Z,1.45
2023-06-29T20:17:49.522Z,0.57
2023-06-29T20:22:51.946Z,0.85
2023-06-29T20:27:54.677Z,1.90
2023-06-29T20:32:57.010Z,0.73
2023-06-29T20:37:59.163Z,0.40
2023-06-29T20:43:01.368Z,0.95
2023-06-29T20:48:03.634Z,0.77
2023-06-29T20:53:05.842Z,0.85
2023-06-29T20:58:10.197Z,0.70
2023-06-29T21:03:12.826Z,0.65
2023-06-29T21:08:15.023Z,0.90
2023-06-29T21:13:17.545Z,2.05
2023-06-29T21:18:20.097Z,0.50
2023-06-29T21:23:22.456Z,0.68
2023-06-29T21:28:24.916Z,0.63
2023-06-29T21:33:28.262Z,0.57
2023-06-29T21:38:32.350Z,1.98
2023-06-29T21:43:34.734Z,0.90
2023-06-29T21:48:39.691Z,1.10
2023-06-29T21:53:41.791Z,0.80
2023-06-29T21:58:43.899Z,0.68
2023-06-29T22:03:46.226Z,0.90
2023-06-29T22:08:48.408Z,0.75
2023-06-29T22:13:50.666Z,0.90
2023-06-29T22:18:53.232Z,0.70
2023-06-29T22:23:56.419Z,0.75
2023-06-29T22:28:58.517Z,0.68
2023-06-29T22:34:00.571Z,1.38
2023-06-29T22:39:02.815Z,0.93
2023-06-29T22:44:05.165Z,1.15
2023-06-29T22:49:07.359Z,1.08
2023-06-29T22:54:10.256Z,0.68
2023-06-29T22:59:13.491Z,0.93
2023-06-29T23:04:15.761Z,1.00
2023-06-29T23:09:18.281Z,1.50
2023-06-29T23:14:20.637Z,0.88
2023-06-29T23:19:22.799Z,0.93
2023-06-29T23:24:24.948Z,0.90
2023-06-29T23:29:27.029Z,0.90
2023-06-29T23:34:29.172Z,1.73
2023-06-29T23:39:35.889Z,0.75
2023-06-29T23:44:41.847Z,0.60
2023-06-29T23:49:44.451Z,0.50
2023-06-29T23:54:46.647Z,1.25
2023-06-29T23:59:48.851Z,1.67
